KAPN/APN METAR and TAF weather

Enter ICAO airport designator
Station Type Date Time Source
KAPN METAR 2020/07/12 06:54 UTC NOAA

KAPN 120654Z AUTO VRB03KT 10SM CLR 16/13 A2976 RMK AO2 SLP074 T01610133


Station Type Date Time Source
KAPN Decoded METAR 2020/07/12 06:54 UTC NOAA

ALPENA COUNTY REGIONAL AIRPORT, MI, United States (KAPN) 45-05N 083-34W 210M
Jul 12, 2020 - 02:54 AM EDT / 2020.07.12 0654 UTC
Wind: Variable at 3 MPH (3 KT):0
Visibility: 10 mile(s):0
Sky conditions: clear
Temperature: 61.0 F (16.1 C)
Dew Point: 55.9 F (13.3 C)
Relative Humidity: 83%
Pressure (altimeter): 29.76 in. Hg (1007 hPa)
ob: KAPN 120654Z AUTO VRB03KT 10SM CLR 16/13 A2976 RMK AO2 SLP074 T01610133
cycle: 7

Station Type Date Time Source
KAPN TAF 2020/07/12 06:22 UTC NOAA

TAF KAPN 120520Z 1206/1306 32007KT P6SM SKC
FM120900 30006KT P6SM BKN050
FM121400 33008KT P6SM BKN045
FM121700 33010G19KT P6SM BKN045
FM122300 33009KT P6SM BKN045
FM130100 33008KT P6SM SCT050

Example: see airport list